Time;durP1;ratioP1;P1;durP2;ratioP2;P2;SDS_P1;SDS_P2;PMS_P1;PMS_P2;Temp;Humidity;BMP_temperature;BMP_pressure;BME280_temperature;BME280_humidity;BME280_pressure;Samples;Min_cycle;Max_cycle;Signal;HPM_P1;HPM_P2
2024/03/09 00:00:40;;;;;;;12.80;7.60;;;12.10;70.40;;;;;;2325677;54;21092;-66
2024/03/09 00:03:07;;;;;;;12.25;7.85;;;12.20;70.50;;;;;;2334807;54;21462;-65
2024/03/09 00:05:34;;;;;;;11.15;7.35;;;12.20;70.70;;;;;;2335538;54;20976;-65
2024/03/09 00:08:04;;;;;;;12.23;7.87;;;12.20;70.80;;;;;;2334975;54;21395;-66
2024/03/09 00:10:31;;;;;;;12.10;7.62;;;12.10;70.70;;;;;;2580265;53;20937;-64
2024/03/09 00:12:57;;;;;;;13.45;8.25;;;12.20;70.80;;;;;;2334560;54;20941;-65
2024/03/09 00:15:24;;;;;;;15.75;9.57;;;12.20;70.80;;;;;;2580101;53;20969;-64
2024/03/09 00:17:51;;;;;;;16.45;10.43;;;12.10;70.60;;;;;;2334527;54;20957;-66
2024/03/09 00:20:22;;;;;;;15.23;9.85;;;12.10;70.50;;;;;;2335521;54;20945;-65
2024/03/09 00:22:50;;;;;;;17.52;10.45;;;12.10;70.50;;;;;;2334790;54;21423;-66
2024/03/09 00:25:20;;;;;;;16.37;9.95;;;12.10;70.50;;;;;;2322443;54;21093;-65
2024/03/09 00:27:46;;;;;;;17.58;10.57;;;12.10;70.60;;;;;;2300951;55;20941;-65
2024/03/09 00:30:17;;;;;;;15.52;9.90;;;12.10;70.70;;;;;;2335306;54;21170;-66
2024/03/09 00:32:48;;;;;;;13.88;9.52;;;12.10;70.70;;;;;;2335005;54;20945;-65
2024/03/09 00:35:15;;;;;;;13.30;8.20;;;12.10;70.60;;;;;;2335986;54;20949;-64
2024/03/09 00:37:42;;;;;;;12.43;7.82;;;12.10;70.80;;;;;;2579785;53;21393;-64
2024/03/09 00:40:08;;;;;;;13.80;8.52;;;12.10;70.90;;;;;;2335505;54;20994;-65
2024/03/09 00:42:36;;;;;;;14.27;8.90;;;12.10;70.90;;;;;;2335347;54;20953;-64
2024/03/09 00:45:03;;;;;;;13.35;8.55;;;12.10;70.90;;;;;;2334931;54;20968;-66
2024/03/09 00:47:35;;;;;;;14.25;8.80;;;12.10;70.80;;;;;;2580401;53;21056;-63
2024/03/09 00:50:08;;;;;;;12.95;8.07;;;12.10;70.60;;;;;;2335532;54;20960;-65
2024/03/09 00:52:35;;;;;;;15.55;8.85;;;12.10;70.80;;;;;;2579983;53;21024;-64
2024/03/09 00:55:01;;;;;;;13.40;8.75;;;12.10;70.90;;;;;;2580104;53;20941;-65
2024/03/09 00:57:28;;;;;;;16.17;9.35;;;12.10;70.90;;;;;;2580012;53;20933;-66
2024/03/09 00:59:54;;;;;;;14.27;9.52;;;12.10;70.90;;;;;;2579453;53;20944;-66
2024/03/09 01:02:21;;;;;;;15.00;9.75;;;12.10;70.80;;;;;;2335277;54;21088;-66
2024/03/09 01:04:51;;;;;;;16.48;10.02;;;12.10;70.90;;;;;;2335170;54;21646;-66
2024/03/09 01:07:19;;;;;;;12.60;8.05;;;12.10;70.90;;;;;;2580291;53;21249;-66
2024/03/09 01:09:48;;;;;;;12.10;7.65;;;12.10;70.90;;;;;;2335502;54;20921;-65
2024/03/09 01:12:20;;;;;;;12.13;7.57;;;12.10;71.00;;;;;;2335415;54;21002;-66
2024/03/09 01:14:49;;;;;;;11.93;7.30;;;12.10;71.50;;;;;;2335265;54;20977;-64
2024/03/09 01:17:21;;;;;;;11.27;7.20;;;12.10;70.80;;;;;;2580629;53;21458;-65
2024/03/09 01:19:50;;;;;;;10.95;6.47;;;12.10;70.80;;;;;;2580251;53;20949;-65
2024/03/09 01:22:17;;;;;;;12.98;7.97;;;12.10;70.80;;;;;;2334479;54;21813;-64
2024/03/09 01:24:44;;;;;;;11.75;7.22;;;12.10;70.80;;;;;;2544819;53;20955;-64
2024/03/09 01:27:10;;;;;;;13.18;7.65;;;12.10;70.70;;;;;;2334107;54;20984;-65
2024/03/09 01:29:37;;;;;;;14.70;8.63;;;12.10;70.80;;;;;;2335253;54;20949;-64
2024/03/09 01:32:05;;;;;;;11.93;7.20;;;12.10;70.80;;;;;;2317491;54;21065;-65
2024/03/09 01:34:32;;;;;;;11.40;6.90;;;12.10;70.80;;;;;;2563171;53;21430;-65
2024/03/09 01:36:58;;;;;;;11.60;6.70;;;12.10;70.90;;;;;;2334198;54;20949;-64
2024/03/09 01:39:25;;;;;;;11.57;6.95;;;12.10;70.90;;;;;;2580384;53;20969;-65
2024/03/09 01:41:51;;;;;;;11.27;7.03;;;12.10;71.00;;;;;;2579618;53;20965;-65
2024/03/09 01:44:18;;;;;;;12.18;7.10;;;12.10;71.00;;;;;;2335150;54;21004;-65
2024/03/09 01:46:45;;;;;;;12.10;7.28;;;12.10;71.00;;;;;;2333635;54;20957;-66
2024/03/09 01:49:11;;;;;;;11.48;6.45;;;12.10;71.00;;;;;;2579489;53;21020;-65
2024/03/09 01:51:45;;;;;;;15.07;8.65;;;12.10;71.00;;;;;;2579937;53;20954;-65
2024/03/09 01:54:19;;;;;;;16.37;7.70;;;12.20;70.80;;;;;;2579936;53;20985;-64
2024/03/09 01:56:48;;;;;;;10.15;6.95;;;12.10;70.90;;;;;;2579930;53;20938;-65
2024/03/09 01:59:15;;;;;;;10.98;6.93;;;12.20;71.00;;;;;;2555646;53;21450;-65
2024/03/09 02:01:42;;;;;;;11.85;6.90;;;12.20;71.20;;;;;;2568068;53;20965;-64
2024/03/09 02:04:08;;;;;;;12.50;7.30;;;12.20;71.30;;;;;;2579793;53;20981;-64
2024/03/09 02:06:35;;;;;;;13.75;8.32;;;12.10;71.30;;;;;;2334120;54;20961;-64
2024/03/09 02:09:07;;;;;;;14.13;8.70;;;12.20;71.30;;;;;;2335101;54;20994;-65
2024/03/09 02:11:36;;;;;;;15.00;9.43;;;12.20;71.20;;;;;;2580354;53;21296;-64
2024/03/09 02:14:04;;;;;;;13.80;7.53;;;12.20;70.70;;;;;;2334554;54;21562;-64
2024/03/09 02:16:33;;;;;;;13.25;7.80;;;12.20;70.90;;;;;;2579607;53;20985;-65
2024/03/09 02:19:00;;;;;;;11.82;7.10;;;12.20;70.80;;;;;;2334806;54;20925;-65
2024/03/09 02:21:31;;;;;;;11.35;7.12;;;12.20;71.10;;;;;;2335122;54;21312;-66
2024/03/09 02:24:02;;;;;;;11.68;7.03;;;12.10;71.00;;;;;;2335267;54;20933;-65
2024/03/09 02:26:29;;;;;;;7.97;5.35;;;12.20;70.90;;;;;;2579594;53;21007;-65
2024/03/09 02:28:57;;;;;;;9.57;5.78;;;12.20;71.10;;;;;;2579018;53;21831;-65
2024/03/09 02:31:23;;;;;;;8.57;5.07;;;12.20;71.20;;;;;;2334452;54;20949;-64
2024/03/09 02:33:52;;;;;;;9.63;5.35;;;12.20;71.20;;;;;;2317299;54;20942;-65
2024/03/09 02:36:25;;;;;;;8.85;5.05;;;12.20;71.30;;;;;;2562156;53;21055;-66
2024/03/09 02:38:54;;;;;;;9.40;5.60;;;12.20;71.00;;;;;;2312441;54;20985;-65
2024/03/09 02:41:21;;;;;;;8.07;4.82;;;12.20;71.30;;;;;;2334970;54;20985;-65
2024/03/09 02:43:47;;;;;;;9.35;5.60;;;12.20;71.30;;;;;;2335033;54;21924;-65
2024/03/09 02:46:16;;;;;;;9.52;5.30;;;12.20;71.30;;;;;;2335065;54;21013;-66
2024/03/09 02:48:44;;;;;;;8.00;4.72;;;12.20;71.10;;;;;;2580064;53;20941;-65
2024/03/09 02:51:12;;;;;;;8.07;4.70;;;12.20;71.20;;;;;;2335346;54;20949;-65
2024/03/09 02:53:42;;;;;;;9.40;5.22;;;12.20;71.90;;;;;;2334699;54;21001;-65
2024/03/09 02:56:11;;;;;;;12.57;6.45;;;12.30;71.30;;;;;;2542577;53;21456;-67
2024/03/09 02:58:38;;;;;;;13.80;6.72;;;12.20;71.20;;;;;;2336105;54;21005;-64
2024/03/09 03:01:07;;;;;;;11.20;6.90;;;12.20;71.10;;;;;;2579316;53;21657;-65
2024/03/09 03:03:49;;;;;;;12.77;8.15;;;12.20;70.90;;;;;;2335556;54;21446;-65
2024/03/09 03:06:18;;;;;;;12.70;7.72;;;12.20;70.40;;;;;;2326710;54;21011;-64
2024/03/09 03:08:46;;;;;;;13.52;8.63;;;12.10;70.40;;;;;;2537804;53;26380;-65
2024/03/09 03:11:14;;;;;;;13.73;8.73;;;12.10;70.30;;;;;;2296972;55;21417;-63
2024/03/09 03:13:42;;;;;;;11.68;7.62;;;12.10;70.40;;;;;;2334889;54;20948;-66
2024/03/09 03:16:17;;;;;;;15.95;9.25;;;12.10;70.50;;;;;;2334448;54;21076;-66
2024/03/09 03:18:48;;;;;;;10.45;6.50;;;12.00;70.50;;;;;;2335518;54;21228;-64
2024/03/09 03:21:15;;;;;;;12.68;7.53;;;12.00;70.40;;;;;;2580199;53;20977;-65
2024/03/09 03:23:42;;;;;;;10.45;6.93;;;12.00;70.60;;;;;;2572729;53;21036;-64
2024/03/09 03:26:12;;;;;;;11.95;7.55;;;12.00;70.70;;;;;;2328239;54;21885;-64
2024/03/09 03:28:42;;;;;;;12.27;7.93;;;12.00;70.70;;;;;;2315612;54;20965;-65
2024/03/09 03:31:08;;;;;;;15.07;8.35;;;11.90;70.40;;;;;;2579630;53;20949;-64
2024/03/09 03:33:38;;;;;;;12.60;7.07;;;11.90;70.60;;;;;;2335667;54;21005;-65
2024/03/09 03:36:18;;;;;;;12.25;7.32;;;11.90;70.60;;;;;;2334891;54;20992;-64
2024/03/09 03:38:48;;;;;;;9.57;5.93;;;11.90;70.00;;;;;;2335155;54;20949;-66
2024/03/09 03:41:14;;;;;;;10.18;6.25;;;11.90;70.30;;;;;;2335837;54;20938;-65
2024/03/09 03:43:42;;;;;;;10.05;6.45;;;11.80;70.30;;;;;;2580347;53;21895;-64
2024/03/09 03:46:11;;;;;;;11.45;7.18;;;11.80;70.20;;;;;;2579606;53;20956;-65
2024/03/09 03:48:40;;;;;;;10.77;6.80;;;11.80;70.10;;;;;;2335300;54;20988;-66
2024/03/09 03:51:07;;;;;;;10.20;6.68;;;11.80;70.00;;;;;;2580168;53;21020;-65
2024/03/09 03:53:33;;;;;;;12.27;7.10;;;11.70;69.80;;;;;;2335326;54;20952;-65
2024/03/09 03:56:01;;;;;;;10.77;6.07;;;11.70;69.90;;;;;;2579500;53;20953;-66
2024/03/09 03:58:30;;;;;;;11.23;7.05;;;11.60;69.80;;;;;;2334646;54;21269;-64
2024/03/09 04:00:58;;;;;;;12.43;7.85;;;11.60;69.80;;;;;;2578827;53;21406;-65
2024/03/09 04:03:31;;;;;;;11.95;7.70;;;11.60;69.80;;;;;;2335179;54;20941;-64
2024/03/09 04:06:02;;;;;;;11.75;7.18;;;11.60;69.80;;;;;;2579813;53;20925;-65
2024/03/09 04:08:31;;;;;;;12.32;7.18;;;11.50;69.70;;;;;;2335650;54;21525;-65
2024/03/09 04:10:59;;;;;;;10.75;6.47;;;11.40;69.70;;;;;;2579707;53;21418;-65
2024/03/09 04:13:27;;;;;;;11.50;6.93;;;11.40;69.60;;;;;;2580547;53;21473;-64
2024/03/09 04:15:55;;;;;;;13.35;8.50;;;11.40;69.60;;;;;;2580310;53;20965;-64
2024/03/09 04:18:22;;;;;;;13.98;8.55;;;11.40;69.50;;;;;;2335744;54;22240;-64
2024/03/09 04:20:48;;;;;;;13.00;7.72;;;11.30;69.40;;;;;;2579762;53;21410;-65
2024/03/09 04:23:17;;;;;;;12.57;7.32;;;11.30;69.40;;;;;;2301250;55;20991;-66
2024/03/09 04:25:50;;;;;;;12.15;7.00;;;11.20;69.30;;;;;;2558781;53;20981;-66
2024/03/09 04:28:20;;;;;;;;;;;11.20;69.10;;;;;;2584411;53;21001;-63
2024/03/09 04:30:48;;;;;;;9.70;5.80;;;11.20;67.70;;;;;;2335381;54;20073;-65
2024/03/09 04:33:18;;;;;;;11.55;6.47;;;11.10;69.00;;;;;;2531075;53;21020;-64
2024/03/09 04:35:47;;;;;;;10.07;6.28;;;11.00;68.80;;;;;;2306909;54;21115;-66
2024/03/09 04:38:14;;;;;;;10.75;6.03;;;11.00;68.90;;;;;;2317577;55;21549;-64
2024/03/09 04:40:43;;;;;;;9.77;6.22;;;10.90;68.80;;;;;;2335542;54;21328;-64
2024/03/09 04:43:10;;;;;;;12.10;7.18;;;10.80;68.60;;;;;;2579366;53;20981;-64
2024/03/09 04:45:36;;;;;;;10.52;6.43;;;10.70;68.50;;;;;;2579335;53;20953;-65
2024/03/09 04:48:04;;;;;;;10.00;6.03;;;10.70;68.50;;;;;;2306635;54;20936;-65
2024/03/09 04:50:33;;;;;;;8.70;5.30;;;10.60;68.40;;;;;;2580534;53;21268;-65
2024/03/09 04:52:59;;;;;;;9.43;5.05;;;10.60;68.40;;;;;;2335230;54;21041;-65
2024/03/09 04:55:29;;;;;;;9.88;5.70;;;10.50;68.20;;;;;;2580632;53;20953;-65
2024/03/09 04:57:55;;;;;;;9.10;5.07;;;10.40;68.10;;;;;;2335464;54;20953;-65
2024/03/09 05:00:24;;;;;;;10.20;5.47;;;10.40;68.20;;;;;;2335294;54;20993;-65
2024/03/09 05:02:50;;;;;;;7.43;4.43;;;10.30;68.20;;;;;;2334386;54;21731;-66
2024/03/09 05:05:17;;;;;;;9.10;4.53;;;10.20;68.10;;;;;;2310385;54;20949;-65
2024/03/09 05:07:48;;;;;;;7.35;4.37;;;10.20;68.10;;;;;;2335519;54;20957;-63
2024/03/09 05:10:22;;;;;;;9.13;4.70;;;10.10;67.90;;;;;;2580062;53;20953;-63
2024/03/09 05:12:54;;;;;;;7.12;4.32;;;10.10;68.00;;;;;;2579927;53;20985;-64
2024/03/09 05:15:21;;;;;;;;;;;10.00;67.90;;;;;;2338680;54;21364;-64
2024/03/09 05:17:48;;;;;;;6.70;3.95;;;9.90;67.70;;;;;;2334542;54;20130;-65
2024/03/09 05:20:20;;;;;;;7.37;4.05;;;9.80;68.80;;;;;;2335189;54;21004;-64
2024/03/09 05:22:50;;;;;;;8.35;4.20;;;9.80;68.90;;;;;;2335534;54;20997;-64
2024/03/09 05:25:17;;;;;;;9.75;4.78;;;9.70;68.90;;;;;;2335096;54;21076;-65
2024/03/09 05:27:43;;;;;;;7.75;4.93;;;9.60;69.00;;;;;;2580500;53;20941;-65
2024/03/09 05:30:18;;;;;;;8.82;4.78;;;9.50;69.10;;;;;;2579534;53;21041;-64
2024/03/09 05:32:54;;;;;;;10.32;6.10;;;9.50;69.10;;;;;;2311832;54;20942;-65
2024/03/09 05:35:26;;;;;;;10.02;5.72;;;9.40;69.30;;;;;;2334019;54;20925;-63
2024/03/09 05:37:52;;;;;;;10.57;5.78;;;9.40;69.40;;;;;;2580303;53;21379;-65
2024/03/09 05:40:20;;;;;;;10.27;5.85;;;9.30;69.30;;;;;;2335165;54;20932;-64
2024/03/09 05:42:50;;;;;;;10.73;5.37;;;9.30;69.40;;;;;;2580229;53;20992;-63
2024/03/09 05:45:20;;;;;;;9.13;4.87;;;9.20;69.50;;;;;;2334962;54;21358;-65
2024/03/09 05:47:50;;;;;;;7.70;4.55;;;9.20;69.60;;;;;;2579551;53;20996;-64
2024/03/09 05:50:17;;;;;;;8.93;4.50;;;9.10;69.50;;;;;;2579279;53;21045;-65
2024/03/09 05:52:44;;;;;;;7.45;4.40;;;9.10;69.70;;;;;;2335526;54;21009;-65
2024/03/09 05:55:12;;;;;;;8.23;4.30;;;9.10;69.80;;;;;;2579895;53;21004;-64
2024/03/09 05:57:42;;;;;;;7.35;3.95;;;9.10;69.90;;;;;;2335542;54;20980;-64
2024/03/09 06:00:15;;;;;;;8.75;4.60;;;9.00;69.80;;;;;;2335050;54;21036;-65
2024/03/09 06:02:42;;;;;;;8.48;4.72;;;9.00;69.80;;;;;;2334474;54;21784;-64
2024/03/09 06:05:10;;;;;;;9.60;5.53;;;8.90;69.80;;;;;;2335355;54;21028;-64
2024/03/09 06:07:40;;;;;;;9.82;5.65;;;8.90;69.80;;;;;;2334299;54;20936;-64
2024/03/09 06:10:14;;;;;;;9.43;5.37;;;8.90;69.80;;;;;;2329085;54;21031;-63
2024/03/09 06:12:42;;;;;;;9.93;5.05;;;8.90;69.90;;;;;;2555882;53;20941;-65
2024/03/09 06:15:08;;;;;;;10.63;6.00;;;8.80;69.90;;;;;;2580121;53;20956;-65
2024/03/09 06:17:35;;;;;;;8.93;5.03;;;8.80;69.90;;;;;;2334328;54;20941;-63
2024/03/09 06:20:01;;;;;;;9.48;5.30;;;8.80;69.90;;;;;;2580062;53;20925;-65
2024/03/09 06:22:33;;;;;;;9.57;5.57;;;8.70;69.80;;;;;;2335375;54;20981;-64
2024/03/09 06:25:00;;;;;;;;;;;8.70;69.70;;;;;;2584184;53;21814;-64
2024/03/09 06:27:27;;;;;;;8.07;4.60;;;8.70;68.40;;;;;;2580291;53;20134;-63
2024/03/09 06:29:56;;;;;;;7.53;4.50;;;8.60;69.60;;;;;;2335411;54;20978;-65
2024/03/09 06:32:28;;;;;;;9.00;5.50;;;8.60;69.60;;;;;;2580195;53;21739;-63
2024/03/09 06:34:55;;;;;;;9.13;5.32;;;8.60;69.40;;;;;;2579958;53;21039;-66
2024/03/09 06:37:22;;;;;;;8.07;5.00;;;8.50;69.50;;;;;;2579531;53;21490;-63
2024/03/09 06:39:48;;;;;;;9.15;5.30;;;8.50;69.50;;;;;;2335024;54;20965;-64
2024/03/09 06:42:15;;;;;;;10.23;6.15;;;8.40;69.40;;;;;;2580083;53;20993;-63
2024/03/09 06:44:41;;;;;;;9.02;5.40;;;8.40;69.40;;;;;;2335223;54;20930;-64
2024/03/09 06:47:08;;;;;;;9.30;5.10;;;8.40;69.60;;;;;;2334784;54;21012;-65
2024/03/09 06:49:37;;;;;;;8.75;5.47;;;8.30;69.60;;;;;;2551878;53;20947;-65
2024/03/09 06:52:05;;;;;;;9.27;5.12;;;8.30;69.80;;;;;;2328998;54;21430;-64
2024/03/09 06:54:32;;;;;;;9.75;5.53;;;8.20;69.80;;;;;;2335584;54;20929;-63
2024/03/09 06:56:59;;;;;;;8.02;5.00;;;8.20;69.90;;;;;;2335442;54;21265;-63
2024/03/09 06:59:25;;;;;;;9.68;5.55;;;8.20;70.00;;;;;;2580038;53;20933;-64
2024/03/09 07:01:56;;;;;;;7.78;4.28;;;8.20;70.10;;;;;;2335079;54;22009;-65
2024/03/09 07:04:25;;;;;;;7.85;4.75;;;8.20;70.30;;;;;;2334652;54;21056;-66
2024/03/09 07:06:52;;;;;;;8.77;5.12;;;8.20;70.40;;;;;;2579916;53;21415;-64
2024/03/09 07:09:19;;;;;;;9.57;5.15;;;8.20;70.60;;;;;;2334151;54;20953;-64
2024/03/09 07:11:50;;;;;;;6.15;3.95;;;8.20;70.70;;;;;;2335010;54;21020;-65
2024/03/09 07:14:18;;;;;;;9.88;5.50;;;8.20;70.70;;;;;;2580089;53;20940;-63
2024/03/09 07:16:46;;;;;;;7.25;4.60;;;8.20;70.90;;;;;;2335364;54;20984;-64
2024/03/09 07:19:16;;;;;;;9.32;5.47;;;8.20;71.00;;;;;;2321468;54;21181;-64
2024/03/09 07:21:42;;;;;;;8.63;5.03;;;8.20;71.20;;;;;;2563381;53;21000;-64
2024/03/09 07:24:09;;;;;;;8.93;5.10;;;8.20;71.30;;;;;;2579171;53;20931;-64
2024/03/09 07:26:39;;;;;;;9.77;5.32;;;8.20;71.40;;;;;;2334546;54;21718;-65
2024/03/09 07:29:05;;;;;;;9.82;5.32;;;8.30;71.60;;;;;;2579917;53;21537;-65
2024/03/09 07:31:32;;;;;;;9.70;5.32;;;8.40;71.90;;;;;;2335201;54;20941;-63
2024/03/09 07:33:58;;;;;;;10.35;6.07;;;8.30;71.90;;;;;;2580473;53;22377;-64
2024/03/09 07:36:24;;;;;;;9.30;5.65;;;8.40;72.10;;;;;;2334357;54;20953;-64
2024/03/09 07:38:52;;;;;;;8.75;4.62;;;8.40;72.20;;;;;;2580654;53;21288;-64
2024/03/09 07:41:21;;;;;;;10.20;5.28;;;8.40;72.20;;;;;;2334152;54;20949;-66
2024/03/09 07:43:47;;;;;;;12.43;7.60;;;8.50;72.50;;;;;;2576047;53;21020;-65
2024/03/09 07:46:14;;;;;;;12.05;7.32;;;8.50;72.50;;;;;;2306636;54;21028;-64
2024/03/09 07:48:40;;;;;;;15.40;8.45;;;8.60;72.80;;;;;;2334583;54;21009;-66
2024/03/09 07:51:10;;;;;;;11.82;7.30;;;8.60;72.80;;;;;;2335381;54;21821;-65
2024/03/09 07:53:38;;;;;;;10.63;6.40;;;8.70;73.00;;;;;;2542859;53;21798;-65
2024/03/09 07:56:05;;;;;;;10.95;6.75;;;8.70;73.00;;;;;;2335822;54;20980;-64
2024/03/09 07:58:31;;;;;;;12.63;7.18;;;8.80;73.20;;;;;;2334907;54;21530;-65
2024/03/09 08:00:58;;;;;;;15.57;8.38;;;8.80;73.30;;;;;;2335176;54;21005;-64
2024/03/09 08:03:28;;;;;;;15.63;8.45;;;8.90;73.40;;;;;;2334617;54;20941;-65
2024/03/09 08:05:54;;;;;;;14.48;8.02;;;9.00;73.60;;;;;;2335446;54;21363;-66
2024/03/09 08:08:21;;;;;;;15.88;8.90;;;9.00;73.70;;;;;;2580107;53;20964;-65
2024/03/09 08:10:52;;;;;;;17.75;10.18;;;9.10;73.90;;;;;;2579569;53;20980;-65
2024/03/09 08:13:19;;;;;;;13.90;8.70;;;9.10;73.90;;;;;;2579247;53;20972;-65
2024/03/09 08:15:48;;;;;;;17.12;10.20;;;9.20;73.90;;;;;;2334850;54;21056;-65
2024/03/09 08:18:15;;;;;;;19.33;10.38;;;9.30;74.00;;;;;;2335259;54;21025;-67
2024/03/09 08:20:41;;;;;;;20.37;10.57;;;9.30;74.10;;;;;;2580187;53;20944;-66
2024/03/09 08:23:08;;;;;;;19.75;10.27;;;9.40;74.20;;;;;;2335043;54;20996;-68
2024/03/09 08:25:35;;;;;;;17.92;10.00;;;9.50;74.30;;;;;;2334666;54;20924;-68
2024/03/09 08:28:05;;;;;;;18.30;10.82;;;9.60;74.30;;;;;;2335427;54;20997;-67
2024/03/09 08:30:34;;;;;;;16.90;9.13;;;9.60;74.30;;;;;;2335433;54;20984;-66
2024/03/09 08:33:04;;;;;;;15.35;9.55;;;9.70;74.30;;;;;;2580467;53;20961;-67
2024/03/09 08:35:32;;;;;;;15.20;8.52;;;9.80;74.40;;;;;;2580065;53;21444;-67
2024/03/09 08:37:59;;;;;;;17.20;10.32;;;9.80;74.50;;;;;;2580207;53;21287;-66
2024/03/09 08:40:30;;;;;;;18.00;10.35;;;9.90;74.70;;;;;;2334955;54;20973;-67
2024/03/09 08:42:56;;;;;;;17.08;10.38;;;10.00;73.80;;;;;;2334984;54;21300;-67
2024/03/09 08:45:23;;;;;;;18.55;10.25;;;10.10;74.00;;;;;;2335282;54;21375;-67
2024/03/09 08:47:50;;;;;;;17.60;10.90;;;10.20;74.30;;;;;;2335274;54;21495;-67
2024/03/09 08:50:21;;;;;;;18.15;11.25;;;10.20;74.60;;;;;;2334947;54;20949;-66
2024/03/09 08:52:47;;;;;;;17.60;10.02;;;10.40;74.90;;;;;;2579716;53;21403;-68
2024/03/09 08:55:14;;;;;;;16.37;10.70;;;10.50;75.40;;;;;;2579890;53;20965;-66
2024/03/09 08:57:41;;;;;;;18.23;10.23;;;10.60;75.80;;;;;;2580120;53;21312;-66
2024/03/09 09:00:08;;;;;;;17.75;10.63;;;10.70;75.80;;;;;;2335828;54;20988;-65
2024/03/09 09:02:37;;;;;;;18.87;10.38;;;10.90;76.00;;;;;;2334936;54;20961;-65
2024/03/09 09:05:11;;;;;;;13.88;9.27;;;11.00;76.00;;;;;;2335127;54;20977;-66
2024/03/09 09:07:39;;;;;;;14.75;9.77;;;11.10;76.00;;;;;;2580048;53;20902;-66
2024/03/09 09:10:11;;;;;;;13.35;8.77;;;11.30;76.30;;;;;;2580177;53;20993;-68
2024/03/09 09:12:43;;;;;;;15.02;8.70;;;11.40;76.30;;;;;;2334115;54;21665;-67
2024/03/09 09:15:09;;;;;;;14.00;8.63;;;11.50;77.00;;;;;;2308338;54;21786;-67
2024/03/09 09:17:36;;;;;;;14.80;8.80;;;11.70;76.60;;;;;;2308149;54;21016;-66
2024/03/09 09:20:10;;;;;;;12.20;8.25;;;11.80;76.80;;;;;;2544779;54;21796;-66
2024/03/09 09:22:44;;;;;;;12.90;7.70;;;11.90;76.60;;;;;;2304396;54;21769;-67
2024/03/09 09:25:12;;;;;;;13.00;7.97;;;12.00;76.40;;;;;;2310673;54;21152;-67
2024/03/09 09:27:44;;;;;;;12.80;7.78;;;12.20;76.80;;;;;;2547598;54;21393;-67
2024/03/09 09:30:11;;;;;;;16.90;10.27;;;12.30;76.80;;;;;;2308968;54;21004;-68
2024/03/09 09:32:40;;;;;;;18.02;10.18;;;12.40;76.70;;;;;;2305178;55;21061;-67
2024/03/09 09:35:07;;;;;;;21.95;11.55;;;12.50;76.60;;;;;;2284421;55;20939;-66
2024/03/09 09:37:41;;;;;;;19.70;11.98;;;12.60;76.40;;;;;;2308765;55;21015;-66
2024/03/09 09:40:13;;;;;;;16.75;11.00;;;12.70;76.30;;;;;;2309191;55;20939;-66
2024/03/09 09:42:40;;;;;;;16.23;10.95;;;12.80;76.10;;;;;;2308822;55;21403;-66
2024/03/09 09:45:15;;;;;;;19.45;12.37;;;12.90;76.00;;;;;;2548075;54;21011;-66
2024/03/09 09:47:44;;;;;;;17.87;11.38;;;13.00;76.00;;;;;;2308933;54;20999;-67
2024/03/09 09:50:21;;;;;;;19.12;12.10;;;13.10;75.80;;;;;;2309408;54;20982;-67
2024/03/09 09:52:49;;;;;;;18.70;11.57;;;13.20;75.70;;;;;;2554138;53;20967;-66
2024/03/09 09:55:19;;;;;;;18.92;12.02;;;13.30;75.60;;;;;;2329161;54;20954;-65
2024/03/09 09:57:46;;;;;;;18.95;11.50;;;13.30;75.50;;;;;;2340643;54;20965;-66
2024/03/09 10:00:13;;;;;;;18.65;12.00;;;13.40;75.50;;;;;;2341327;54;20985;-67
2024/03/09 10:02:42;;;;;;;18.95;11.73;;;13.40;75.40;;;;;;2555497;53;21960;-66
2024/03/09 10:05:24;;;;;;;16.02;10.95;;;13.50;75.10;;;;;;2578053;53;20945;-67
2024/03/09 10:08:09;;;;;;;16.27;10.63;;;13.60;75.10;;;;;;2341998;54;20941;-65
2024/03/09 10:10:38;;;;;;;16.30;10.15;;;13.70;74.70;;;;;;2340879;54;21764;-69
2024/03/09 10:13:10;;;;;;;15.00;9.98;;;13.80;75.60;;;;;;2341622;54;20960;-67
2024/03/09 10:15:40;;;;;;;16.20;10.50;;;13.80;75.40;;;;;;2340943;54;21020;-67
2024/03/09 10:18:09;;;;;;;15.65;10.48;;;13.90;75.70;;;;;;2316846;54;20986;-68
2024/03/09 10:20:38;;;;;;;18.08;11.25;;;14.10;76.00;;;;;;2340399;54;20945;-71
2024/03/09 10:23:12;;;;;;;16.48;10.98;;;14.10;76.00;;;;;;2341129;54;21004;-67
2024/03/09 10:25:41;;;;;;;16.50;11.07;;;14.20;75.60;;;;;;2340437;54;20901;-69
2024/03/09 10:28:10;;;;;;;14.52;9.90;;;14.30;75.90;;;;;;2340979;54;20971;-68
2024/03/09 10:30:40;;;;;;;15.45;9.98;;;14.40;76.00;;;;;;2318480;54;21240;-68
2024/03/09 10:33:12;;;;;;;16.62;11.00;;;14.50;75.80;;;;;;2340563;54;21067;-66
2024/03/09 10:35:40;;;;;;;15.95;10.63;;;14.50;75.40;;;;;;2319676;55;20942;-70
2024/03/09 10:38:09;;;;;;;17.75;11.05;;;14.60;75.20;;;;;;2339988;54;21559;-71
2024/03/09 10:40:35;;;;;;;18.58;11.20;;;14.70;75.30;;;;;;2586887;53;20996;-69
2024/03/09 10:43:08;;;;;;;18.17;11.05;;;14.70;75.00;;;;;;2340553;54;20960;-67
2024/03/09 10:45:35;;;;;;;16.77;10.98;;;14.80;74.70;;;;;;2586656;53;21048;-66
2024/03/09 10:48:09;;;;;;;17.17;10.60;;;14.90;74.90;;;;;;2587123;53;20968;-67
2024/03/09 10:55:07;;;;;;;14.70;9.48;;;14.90;74.70;;;;;;2586735;53;21866;-67
2024/03/09 10:57:35;;;;;;;11.68;7.93;;;15.00;73.50;;;;;;2340556;54;21661;-67
2024/03/09 11:00:03;;;;;;;14.10;9.13;;;15.10;75.40;;;;;;2341824;54;21839;-65
2024/03/09 11:02:31;;;;;;;14.68;9.48;;;15.10;75.30;;;;;;2340597;54;21012;-66
2024/03/09 11:04:58;;;;;;;13.27;9.00;;;15.20;75.20;;;;;;2341952;54;21033;-66
2024/03/09 11:07:27;;;;;;;15.18;9.80;;;15.20;75.20;;;;;;2341723;54;21197;-66
2024/03/09 11:09:53;;;;;;;14.63;9.85;;;15.30;75.10;;;;;;2341058;54;20968;-67
2024/03/09 11:12:21;;;;;;;14.90;9.35;;;15.30;74.80;;;;;;2587014;53;21705;-66
2024/03/09 11:14:58;;;;;;;16.40;9.93;;;15.40;74.80;;;;;;2340778;54;21005;-66
2024/03/09 11:17:39;;;;;;;15.23;10.07;;;15.50;73.80;;;;;;2341102;54;20948;-66
2024/03/09 11:20:07;;;;;;;14.38;9.65;;;15.50;73.70;;;;;;2341423;54;21410;-65
2024/03/09 11:22:47;;;;;;;13.32;8.95;;;15.50;74.20;;;;;;2340729;54;21036;-66
2024/03/09 11:25:14;;;;;;;14.63;8.88;;;15.50;73.30;;;;;;2548859;54;20943;-66
2024/03/09 11:27:43;;;;;;;14.77;9.80;;;15.60;74.00;;;;;;2309156;54;20945;-66
2024/03/09 11:30:19;;;;;;;13.88;8.95;;;15.60;74.20;;;;;;2312710;54;20991;-66
2024/03/09 11:32:46;;;;;;;12.55;8.40;;;15.70;73.50;;;;;;2307289;55;21715;-66
2024/03/09 11:35:26;;;;;;;12.25;8.80;;;15.70;74.20;;;;;;2326773;54;21697;-67
2024/03/09 11:37:56;;;;;;;14.48;9.48;;;15.70;73.10;;;;;;2317277;54;20966;-66
2024/03/09 11:40:24;;;;;;;13.52;8.93;;;15.80;74.50;;;;;;2587759;53;21013;-66
2024/03/09 11:43:04;;;;;;;14.00;9.10;;;15.80;74.30;;;;;;2584929;53;21724;-67
2024/03/09 11:45:39;;;;;;;12.50;8.23;;;15.90;73.20;;;;;;2340748;54;21425;-66
2024/03/09 11:48:08;;;;;;;11.77;7.93;;;15.90;73.30;;;;;;2586043;53;21783;-66
2024/03/09 11:50:40;;;;;;;13.05;7.97;;;16.00;74.00;;;;;;2340828;54;21107;-66
2024/03/09 11:53:10;;;;;;;11.77;8.15;;;16.00;74.10;;;;;;2318318;54;20946;-66
2024/03/09 11:55:41;;;;;;;12.25;8.40;;;16.10;74.10;;;;;;2341050;54;20932;-66
2024/03/09 11:58:33;;;;;;;10.13;7.20;;;16.10;74.00;;;;;;2554004;53;20990;-70
2024/03/09 12:01:09;;;;;;;11.30;7.68;;;16.20;74.10;;;;;;2341150;54;20944;-70
2024/03/09 12:03:36;;;;;;;14.02;9.02;;;16.20;74.20;;;;;;2587419;53;20957;-69
2024/03/09 12:06:04;;;;;;;13.62;8.73;;;16.30;74.50;;;;;;2341513;54;21724;-69
2024/03/09 12:08:34;;;;;;;13.38;9.13;;;16.30;74.30;;;;;;2575981;53;21301;-66
2024/03/09 12:11:08;;;;;;;13.10;8.25;;;16.40;74.30;;;;;;2568259;53;20936;-67
2024/03/09 12:13:36;;;;;;;13.90;9.00;;;16.40;74.20;;;;;;2340448;54;21004;-67
2024/03/09 12:16:03;;;;;;;14.38;9.23;;;16.50;74.20;;;;;;2587521;53;20952;-66
2024/03/09 12:18:30;;;;;;;12.23;8.40;;;16.60;74.30;;;;;;2341309;54;20990;-66
2024/03/09 12:21:06;;;;;;;14.87;9.27;;;16.60;74.30;;;;;;2341091;54;20956;-69
2024/03/09 12:23:34;;;;;;;12.68;8.30;;;16.70;74.30;;;;;;2340862;54;20957;-68
2024/03/09 12:26:06;;;;;;;11.12;6.87;;;16.80;74.10;;;;;;2587880;53;21855;-67
2024/03/09 12:28:32;;;;;;;11.68;7.20;;;16.80;74.20;;;;;;2582882;53;20983;-67
2024/03/09 12:31:00;;;;;;;13.05;8.13;;;16.90;74.40;;;;;;2336517;54;21010;-66
2024/03/09 12:33:29;;;;;;;12.10;8.07;;;16.90;74.10;;;;;;2564934;53;20925;-66
2024/03/09 12:36:08;;;;;;;15.05;8.25;;;17.00;74.00;;;;;;2342314;54;20933;-66
2024/03/09 12:38:39;;;;;;;12.35;8.05;;;17.00;72.60;;;;;;2587615;53;21391;-67
2024/03/09 12:41:29;;;;;;;12.23;8.27;;;17.10;73.10;;;;;;2341777;54;21000;-67
2024/03/09 12:44:02;;;;;;;10.93;7.30;;;17.20;73.50;;;;;;2587116;53;20934;-69
2024/03/09 12:46:36;;;;;;;12.95;8.00;;;17.20;72.80;;;;;;2327884;54;21082;-67
2024/03/09 12:49:11;;;;;;;14.00;8.70;;;17.20;73.20;;;;;;2330824;54;21032;-67
2024/03/09 12:51:42;;;;;;;15.80;7.50;;;17.20;72.30;;;;;;2340432;54;21443;-67
2024/03/09 12:54:13;;;;;;;12.63;8.13;;;17.20;72.50;;;;;;2586636;53;20964;-68